createdAt,value
2019-03-24T00:00:06.907Z,11.40
2019-03-24T00:02:37.488Z,11.30
2019-03-24T00:05:08.422Z,11.30
2019-03-24T00:07:38.334Z,11.20
2019-03-24T00:10:09.188Z,11.10
2019-03-24T00:12:39.550Z,11.10
2019-03-24T00:15:09.884Z,11.10
2019-03-24T00:17:39.687Z,11.10
2019-03-24T00:20:10.399Z,11.00
2019-03-24T00:22:40.234Z,11.20
2019-03-24T00:25:10.975Z,11.20
2019-03-24T00:27:43.262Z,11.20
2019-03-24T00:30:13.298Z,11.10
2019-03-24T00:32:43.172Z,11.10
2019-03-24T00:35:12.890Z,11.00
2019-03-24T00:37:43.614Z,10.90
2019-03-24T00:40:13.779Z,10.80
2019-03-24T00:42:46.191Z,10.70
2019-03-24T00:45:16.795Z,10.70
2019-03-24T00:47:49.571Z,10.60
2019-03-24T00:50:20.648Z,10.60
2019-03-24T00:52:50.508Z,10.50
2019-03-24T00:55:20.425Z,10.50
2019-03-24T00:57:50.681Z,10.50
2019-03-24T01:00:41.857Z,10.50
2019-03-24T01:03:12.994Z,10.50
2019-03-24T01:05:43.070Z,10.50
2019-03-24T01:08:16.343Z,10.60
2019-03-24T01:10:47.028Z,10.70
2019-03-24T01:13:17.325Z,10.60
2019-03-24T01:15:48.986Z,10.50
2019-03-24T01:18:20.189Z,10.60
2019-03-24T01:20:50.257Z,10.70
2019-03-24T01:23:19.027Z,10.70
2019-03-24T01:25:47.935Z,10.70
2019-03-24T01:28:17.834Z,10.60
2019-03-24T01:30:47.960Z,10.50
2019-03-24T01:33:17.502Z,10.50
2019-03-24T01:35:49.999Z,10.40
2019-03-24T01:38:21.291Z,10.40
2019-03-24T01:40:51.030Z,10.20
2019-03-24T01:43:21.863Z,10.10
2019-03-24T01:45:58.611Z,10.10
2019-03-24T01:48:24.090Z,10.10
2019-03-24T01:50:55.727Z,10.10
2019-03-24T01:53:26.067Z,10.00
2019-03-24T01:55:56.882Z,10.10
2019-03-24T01:58:27.110Z,10.10
2019-03-24T02:01:00.815Z,10.00
2019-03-24T02:03:33.187Z,9.90
2019-03-24T02:06:03.089Z,9.90
2019-03-24T02:08:37.035Z,9.90
2019-03-24T02:11:08.305Z,9.90
2019-03-24T02:13:39.073Z,9.90
2019-03-24T02:16:09.866Z,9.80
2019-03-24T02:18:41.779Z,9.80
2019-03-24T02:21:11.772Z,9.70
2019-03-24T02:23:41.926Z,9.80
2019-03-24T02:26:16.169Z,9.60
2019-03-24T02:28:47.301Z,9.60
2019-03-24T02:31:18.653Z,9.60
2019-03-24T02:33:50.956Z,9.70
2019-03-24T02:36:21.340Z,9.60
2019-03-24T02:38:50.311Z,9.60
2019-03-24T02:41:20.555Z,9.50
2019-03-24T02:43:50.898Z,9.40
2019-03-24T02:46:24.695Z,9.20
2019-03-24T02:48:55.635Z,9.20
2019-03-24T02:51:26.359Z,9.30
2019-03-24T02:53:59.031Z,9.30
2019-03-24T02:56:30.245Z,9.10
2019-03-24T02:59:03.109Z,9.10
2019-03-24T03:01:33.171Z,9.10
2019-03-24T03:04:04.448Z,9.00
2019-03-24T03:06:34.935Z,8.90
2019-03-24T03:09:07.117Z,8.80
2019-03-24T03:11:39.058Z,8.70
2019-03-24T03:14:11.743Z,8.70
2019-03-24T03:16:44.467Z,8.60
2019-03-24T03:19:14.777Z,8.60
2019-03-24T03:21:45.655Z,8.50
2019-03-24T03:24:17.032Z,8.40
2019-03-24T03:26:47.865Z,8.40
2019-03-24T03:29:20.139Z,8.40
2019-03-24T03:31:51.659Z,8.50
2019-03-24T03:34:22.769Z,8.60
2019-03-24T03:36:54.437Z,8.60
2019-03-24T03:39:24.392Z,8.50
2019-03-24T03:41:55.718Z,8.50
2019-03-24T03:44:27.679Z,8.60
2019-03-24T03:46:58.743Z,8.60
2019-03-24T03:49:29.046Z,8.60
2019-03-24T03:51:59.221Z,8.60
2019-03-24T03:54:29.463Z,8.50
2019-03-24T03:56:59.298Z,8.50
2019-03-24T03:59:29.576Z,8.60
2019-03-24T04:02:02.703Z,8.60
2019-03-24T04:04:32.987Z,8.80
2019-03-24T04:07:02.569Z,8.70
2019-03-24T04:09:32.606Z,8.70
2019-03-24T04:12:02.990Z,8.70
2019-03-24T04:14:32.561Z,8.70
2019-03-24T04:17:07.650Z,8.70
2019-03-24T04:19:34.840Z,8.70
2019-03-24T04:22:06.469Z,8.80
2019-03-24T04:24:36.786Z,8.90
2019-03-24T04:27:11.162Z,8.70
2019-03-24T04:29:41.429Z,8.70
2019-03-24T04:32:13.916Z,8.60
2019-03-24T04:34:45.854Z,8.60
2019-03-24T04:37:19.890Z,8.70
2019-03-24T04:39:51.658Z,8.70
2019-03-24T04:42:24.512Z,8.80
2019-03-24T04:44:54.592Z,8.80
2019-03-24T04:47:25.390Z,8.80
2019-03-24T04:49:58.562Z,8.80
2019-03-24T04:52:29.800Z,8.80
2019-03-24T04:55:00.645Z,8.70
2019-03-24T04:57:31.390Z,8.70
2019-03-24T05:00:02.081Z,8.70
2019-03-24T05:02:31.754Z,8.70
2019-03-24T05:05:02.934Z,8.70
2019-03-24T05:07:33.167Z,8.60
2019-03-24T05:10:03.856Z,8.60
2019-03-24T05:12:34.731Z,8.70
2019-03-24T05:15:04.807Z,8.60
2019-03-24T05:17:35.043Z,8.50
2019-03-24T05:20:05.506Z,8.50
2019-03-24T05:22:35.133Z,8.40
2019-03-24T05:25:04.889Z,8.40
2019-03-24T05:27:35.989Z,8.30
2019-03-24T05:30:06.227Z,8.30
2019-03-24T05:32:36.815Z,8.30
2019-03-24T05:35:07.249Z,8.30
2019-03-24T05:37:37.584Z,8.20
2019-03-24T05:40:08.609Z,8.20
2019-03-24T05:42:40.462Z,8.30
2019-03-24T05:45:11.136Z,8.30
2019-03-24T05:47:40.975Z,8.30
2019-03-24T05:50:11.266Z,8.20
2019-03-24T05:52:42.061Z,8.20
2019-03-24T05:55:12.632Z,8.20
2019-03-24T05:57:42.433Z,8.10
2019-03-24T06:00:13.003Z,8.20
2019-03-24T06:02:43.581Z,8.30
2019-03-24T06:05:13.939Z,8.30
2019-03-24T06:07:43.730Z,8.30
2019-03-24T06:10:13.862Z,8.20
2019-03-24T06:12:44.782Z,8.10
2019-03-24T06:15:14.917Z,8.20
2019-03-24T06:17:47.948Z,8.20
2019-03-24T06:20:16.075Z,8.40
2019-03-24T06:22:45.746Z,8.70
2019-03-24T06:25:15.783Z,8.50
2019-03-24T06:27:46.162Z,8.60
2019-03-24T06:30:16.887Z,8.60
2019-03-24T06:32:46.971Z,8.60
2019-03-24T06:35:17.979Z,8.80
2019-03-24T06:37:48.184Z,8.80
2019-03-24T06:40:24.062Z,8.70
2019-03-24T06:42:55.010Z,8.70
2019-03-24T06:45:28.799Z,8.70
2019-03-24T06:47:58.835Z,8.70
2019-03-24T06:50:33.199Z,9.00
2019-03-24T06:53:04.198Z,9.20
2019-03-24T06:55:35.421Z,9.30
2019-03-24T06:58:06.465Z,9.20
2019-03-24T07:00:37.183Z,9.10
2019-03-24T07:03:08.104Z,9.00
2019-03-24T07:05:36.421Z,9.00
2019-03-24T07:08:05.392Z,9.00
2019-03-24T07:10:36.625Z,9.00
2019-03-24T07:13:05.262Z,9.00
2019-03-24T07:15:34.034Z,9.10
2019-03-24T07:18:08.306Z,9.20
2019-03-24T07:20:33.567Z,9.30
2019-03-24T07:23:02.634Z,9.20
2019-03-24T07:25:31.031Z,9.30
2019-03-24T07:27:59.604Z,9.30
2019-03-24T07:30:30.692Z,9.50
2019-03-24T07:32:59.550Z,9.70
2019-03-24T07:35:29.192Z,9.90
2019-03-24T07:37:59.532Z,10.20
2019-03-24T07:40:29.340Z,10.20
2019-03-24T07:43:00.264Z,10.30
2019-03-24T07:45:32.113Z,10.80
2019-03-24T07:48:02.706Z,11.50
2019-03-24T07:50:34.039Z,12.20
2019-03-24T07:53:07.133Z,12.80
2019-03-24T07:55:37.489Z,12.70
2019-03-24T07:58:08.051Z,13.20
2019-03-24T08:00:38.896Z,13.40
2019-03-24T08:03:09.379Z,14.10
2019-03-24T08:05:39.437Z,14.60
2019-03-24T08:08:09.982Z,14.90
2019-03-24T08:10:40.254Z,15.20
2019-03-24T08:13:09.943Z,15.50
2019-03-24T08:15:41.550Z,15.60
2019-03-24T08:18:11.791Z,16.00
2019-03-24T08:20:42.100Z,15.80
2019-03-24T08:23:14.049Z,16.60
2019-03-24T08:25:44.603Z,15.80
2019-03-24T08:28:16.010Z,15.30
2019-03-24T08:30:46.243Z,15.80
2019-03-24T08:33:18.062Z,16.70
2019-03-24T08:35:51.896Z,16.90
2019-03-24T08:38:23.461Z,17.60
2019-03-24T08:40:53.288Z,17.50
2019-03-24T08:43:23.303Z,17.60
2019-03-24T08:45:55.977Z,18.10
2019-03-24T08:48:25.964Z,18.00
2019-03-24T08:50:56.697Z,17.90
2019-03-24T08:53:28.303Z,18.40
2019-03-24T08:55:58.575Z,17.50
2019-03-24T08:58:28.867Z,17.60
2019-03-24T09:00:58.964Z,18.40
2019-03-24T09:03:29.737Z,19.00
2019-03-24T09:06:04.286Z,19.50
2019-03-24T09:08:34.537Z,19.80
2019-03-24T09:11:05.853Z,20.20
2019-03-24T09:13:37.937Z,20.20
2019-03-24T09:16:07.910Z,20.80
2019-03-24T09:18:52.076Z,20.30
2019-03-24T09:21:13.337Z,20.30
2019-03-24T09:23:47.921Z,21.00
2019-03-24T09:26:22.199Z,19.70
2019-03-24T09:28:56.255Z,20.10
2019-03-24T09:31:31.015Z,19.80
2019-03-24T09:34:03.005Z,21.30
2019-03-24T09:36:33.112Z,22.00
2019-03-24T09:39:05.684Z,24.20
2019-03-24T09:41:37.110Z,24.20
2019-03-24T09:44:08.191Z,25.10
2019-03-24T09:46:39.697Z,25.30
2019-03-24T09:49:09.747Z,26.80
2019-03-24T09:51:41.561Z,28.20
2019-03-24T09:54:12.160Z,29.20
2019-03-24T09:56:47.041Z,30.40
2019-03-24T09:59:17.597Z,27.10
2019-03-24T10:01:48.081Z,26.60
2019-03-24T10:04:18.701Z,25.90
2019-03-24T10:06:49.075Z,24.70
2019-03-24T10:09:20.139Z,24.00
2019-03-24T10:11:51.255Z,26.50
2019-03-24T10:14:21.806Z,28.50
2019-03-24T10:16:52.741Z,28.10
2019-03-24T10:19:23.539Z,28.10
2019-03-24T10:21:55.240Z,27.30
2019-03-24T10:24:25.384Z,24.10
2019-03-24T10:26:55.565Z,26.60
2019-03-24T10:29:25.365Z,28.10
2019-03-24T10:31:55.636Z,25.90
2019-03-24T10:34:25.846Z,27.70
2019-03-24T10:37:13.046Z,28.30
2019-03-24T10:39:44.951Z,26.70
2019-03-24T10:42:14.591Z,22.90
2019-03-24T10:44:45.458Z,22.10
2019-03-24T10:47:15.563Z,21.50
2019-03-24T10:49:47.641Z,21.30
2019-03-24T10:52:19.140Z,20.40
2019-03-24T10:54:49.114Z,20.10
2019-03-24T10:57:21.516Z,19.50
2019-03-24T10:59:52.153Z,19.60
2019-03-24T11:02:23.262Z,18.70
2019-03-24T11:05:00.426Z,18.60
2019-03-24T11:07:32.026Z,18.00
2019-03-24T11:10:02.898Z,18.50
2019-03-24T11:12:32.938Z,17.60
2019-03-24T11:15:04.302Z,17.70
2019-03-24T11:17:34.805Z,18.20
2019-03-24T11:20:05.200Z,18.30
2019-03-24T11:22:35.636Z,17.50
2019-03-24T11:25:09.192Z,17.30
2019-03-24T11:27:39.412Z,17.50
2019-03-24T11:30:12.405Z,17.30
2019-03-24T11:32:42.398Z,17.10
2019-03-24T11:35:14.689Z,17.20
2019-03-24T11:37:45.089Z,17.40
2019-03-24T11:40:15.730Z,17.20
2019-03-24T11:42:45.254Z,17.40
2019-03-24T11:45:15.642Z,17.50
2019-03-24T11:47:46.569Z,17.70
2019-03-24T11:50:16.562Z,17.70
2019-03-24T11:52:45.044Z,17.40
2019-03-24T11:55:13.537Z,17.60
2019-03-24T11:57:42.620Z,17.40
2019-03-24T12:00:13.181Z,17.60
2019-03-24T12:02:42.685Z,17.50
2019-03-24T12:05:11.313Z,17.10
2019-03-24T12:07:40.071Z,17.20
2019-03-24T12:10:09.106Z,17.50
2019-03-24T12:12:37.442Z,17.80
2019-03-24T12:15:07.123Z,17.50
2019-03-24T12:17:38.330Z,17.70
2019-03-24T12:20:08.777Z,17.80
2019-03-24T12:22:38.697Z,17.30
2019-03-24T12:25:09.165Z,17.30
2019-03-24T12:27:39.128Z,17.40
2019-03-24T12:30:10.074Z,17.20
2019-03-24T12:32:40.320Z,17.40
2019-03-24T12:35:10.473Z,17.70
2019-03-24T12:37:42.339Z,17.50
2019-03-24T12:40:12.922Z,17.60
2019-03-24T12:42:43.121Z,17.40
2019-03-24T12:45:17.554Z,17.40
2019-03-24T12:47:51.270Z,17.80
2019-03-24T12:50:31.464Z,17.50
2019-03-24T12:52:57.291Z,17.40
2019-03-24T12:55:27.108Z,17.60
2019-03-24T12:57:58.526Z,17.30
2019-03-24T13:00:47.464Z,17.20
2019-03-24T13:03:17.570Z,17.40
2019-03-24T13:05:49.550Z,17.80
2019-03-24T13:08:19.717Z,17.80
2019-03-24T13:10:51.101Z,18.00
2019-03-24T13:13:20.957Z,18.00
2019-03-24T13:15:53.274Z,18.00
2019-03-24T13:18:22.842Z,17.70
2019-03-24T13:20:53.967Z,17.80
2019-03-24T13:23:24.230Z,17.80
2019-03-24T13:25:54.944Z,18.00
2019-03-24T13:28:25.044Z,18.30
2019-03-24T13:30:56.664Z,18.40
2019-03-24T13:33:27.507Z,18.10
2019-03-24T13:36:12.946Z,18.10
2019-03-24T13:38:44.676Z,18.00
2019-03-24T13:41:16.440Z,18.10
2019-03-24T13:43:46.693Z,18.20
2019-03-24T13:46:18.000Z,18.20
2019-03-24T13:48:49.724Z,18.00
2019-03-24T13:51:22.134Z,18.00
2019-03-24T13:53:54.363Z,18.10
2019-03-24T13:56:29.468Z,18.00
2019-03-24T13:59:01.431Z,18.00
2019-03-24T14:01:32.507Z,18.10
2019-03-24T14:04:03.753Z,18.20
2019-03-24T14:06:34.458Z,18.30
2019-03-24T14:09:08.659Z,18.20
2019-03-24T14:11:39.352Z,18.30
2019-03-24T14:14:09.479Z,18.40
2019-03-24T14:16:41.828Z,18.40
2019-03-24T14:19:12.197Z,18.30
2019-03-24T14:21:42.179Z,18.20
2019-03-24T14:24:12.088Z,18.40
2019-03-24T14:26:42.859Z,18.10
2019-03-24T14:29:13.522Z,18.00
2019-03-24T14:31:44.186Z,18.20
2019-03-24T14:34:14.200Z,18.30
2019-03-24T14:36:45.055Z,18.10
2019-03-24T14:39:15.433Z,18.10
2019-03-24T14:41:44.959Z,18.20
2019-03-24T14:44:15.664Z,18.10
2019-03-24T14:46:45.855Z,18.20
2019-03-24T14:49:16.187Z,18.30
2019-03-24T14:51:46.895Z,18.20
2019-03-24T14:54:17.751Z,18.30
2019-03-24T14:56:48.172Z,18.40
2019-03-24T14:59:19.999Z,18.20
2019-03-24T15:02:03.299Z,18.20
2019-03-24T15:04:54.285Z,18.30
2019-03-24T15:07:35.942Z,18.20
2019-03-24T15:10:10.869Z,18.00
2019-03-24T15:12:45.042Z,18.10
2019-03-24T15:15:15.472Z,17.80
2019-03-24T15:17:45.738Z,17.80
2019-03-24T15:20:15.663Z,17.80
2019-03-24T15:22:45.920Z,17.70
2019-03-24T15:25:15.577Z,17.70
2019-03-24T15:27:47.701Z,17.80
2019-03-24T15:30:18.527Z,17.70
2019-03-24T15:32:48.497Z,17.50
2019-03-24T15:35:20.606Z,17.60
2019-03-24T15:37:50.340Z,17.60
2019-03-24T15:40:25.400Z,17.40
2019-03-24T15:42:56.098Z,17.40
2019-03-24T15:45:27.786Z,17.60
2019-03-24T15:48:00.959Z,17.80
2019-03-24T15:50:31.317Z,17.70
2019-03-24T15:53:02.434Z,17.40
2019-03-24T15:55:33.855Z,17.40
2019-03-24T15:58:03.725Z,17.40
2019-03-24T16:00:47.108Z,17.30
2019-03-24T16:03:17.632Z,17.30
2019-03-24T16:05:47.624Z,17.30
2019-03-24T16:08:17.421Z,17.30
2019-03-24T16:10:48.466Z,17.30
2019-03-24T16:13:19.062Z,17.20
2019-03-24T16:15:51.350Z,17.10
2019-03-24T16:18:25.190Z,17.00
2019-03-24T16:20:55.496Z,17.20
2019-03-24T16:23:25.686Z,17.20
2019-03-24T16:25:58.544Z,17.10
2019-03-24T16:28:36.387Z,17.10
2019-03-24T16:31:08.573Z,17.20
2019-03-24T16:33:39.498Z,17.30
2019-03-24T16:36:09.691Z,17.20
2019-03-24T16:38:48.514Z,17.10
2019-03-24T16:41:11.525Z,17.00
2019-03-24T16:43:41.605Z,17.00
2019-03-24T16:46:12.472Z,16.90
2019-03-24T16:48:43.324Z,16.80
2019-03-24T16:51:15.491Z,16.80
2019-03-24T16:53:45.048Z,16.70
2019-03-24T16:56:15.283Z,16.70
2019-03-24T16:58:45.265Z,16.70
2019-03-24T17:01:15.354Z,16.70
2019-03-24T17:03:46.756Z,16.70
2019-03-24T17:06:18.004Z,16.80
2019-03-24T17:08:48.569Z,16.70
2019-03-24T17:11:21.042Z,16.60
2019-03-24T17:13:50.658Z,16.60
2019-03-24T17:16:20.396Z,16.50
2019-03-24T17:18:52.311Z,16.40
2019-03-24T17:21:22.034Z,16.40
2019-03-24T17:23:52.584Z,16.30
2019-03-24T17:26:26.659Z,16.30
2019-03-24T17:28:57.493Z,16.30
2019-03-24T17:31:27.202Z,16.20
2019-03-24T17:33:57.740Z,16.10
2019-03-24T17:36:29.014Z,15.90
2019-03-24T17:39:04.723Z,15.90
2019-03-24T17:41:34.971Z,15.90
2019-03-24T17:44:04.897Z,15.70
2019-03-24T17:46:42.788Z,15.70
2019-03-24T17:49:13.359Z,15.60
2019-03-24T17:51:43.452Z,15.60
2019-03-24T17:54:13.782Z,15.50
2019-03-24T17:56:45.640Z,15.50
2019-03-24T17:59:15.146Z,15.40
2019-03-24T18:01:46.726Z,15.40
2019-03-24T18:04:16.803Z,15.30
2019-03-24T18:06:46.892Z,15.20
2019-03-24T18:09:16.919Z,15.10
2019-03-24T18:11:47.486Z,15.10
2019-03-24T18:14:17.839Z,15.10
2019-03-24T18:16:48.502Z,14.80
2019-03-24T18:19:18.926Z,14.70
2019-03-24T18:21:50.285Z,14.70
2019-03-24T18:24:21.038Z,14.80
2019-03-24T18:26:58.609Z,14.80
2019-03-24T18:29:28.745Z,14.80
2019-03-24T18:32:00.300Z,14.70
2019-03-24T18:34:30.680Z,14.60
2019-03-24T18:37:03.458Z,14.50
2019-03-24T18:39:34.819Z,14.50
2019-03-24T18:42:06.418Z,14.30
2019-03-24T18:44:36.862Z,14.10
2019-03-24T18:47:06.884Z,13.80
2019-03-24T18:49:37.297Z,13.90
2019-03-24T18:52:07.718Z,13.70
2019-03-24T18:54:38.311Z,13.80
2019-03-24T18:57:08.378Z,13.70
2019-03-24T18:59:46.190Z,13.70
2019-03-24T19:02:25.643Z,13.70
2019-03-24T19:04:55.958Z,13.60
2019-03-24T19:07:27.739Z,13.50
2019-03-24T19:10:01.594Z,13.40
2019-03-24T19:12:31.828Z,13.40
2019-03-24T19:15:02.008Z,13.40
2019-03-24T19:17:31.822Z,13.30
2019-03-24T19:20:04.263Z,13.30
2019-03-24T19:22:35.859Z,13.20
2019-03-24T19:25:17.203Z,13.10
2019-03-24T19:27:47.725Z,13.00
2019-03-24T19:30:19.688Z,13.00
2019-03-24T19:32:49.736Z,13.00
2019-03-24T19:35:20.355Z,13.00
2019-03-24T19:37:52.739Z,13.10
2019-03-24T19:40:34.005Z,13.10
2019-03-24T19:43:05.630Z,13.10
2019-03-24T19:45:44.599Z,12.90
2019-03-24T19:48:15.473Z,12.80
2019-03-24T19:51:00.661Z,12.70
2019-03-24T19:53:27.904Z,12.80
2019-03-24T19:56:05.715Z,12.80
2019-03-24T19:58:40.201Z,12.70
2019-03-24T20:01:10.229Z,12.70
2019-03-24T20:03:43.523Z,12.80
2019-03-24T20:06:14.420Z,12.70
2019-03-24T20:08:44.856Z,12.70
2019-03-24T20:11:15.630Z,12.90
2019-03-24T20:13:45.777Z,12.80
2019-03-24T20:16:16.092Z,12.60
2019-03-24T20:18:46.705Z,12.60
2019-03-24T20:21:16.505Z,12.60
2019-03-24T20:23:46.857Z,12.50
2019-03-24T20:26:21.718Z,12.50
2019-03-24T20:28:52.024Z,12.50
2019-03-24T20:31:21.875Z,12.60
2019-03-24T20:33:52.601Z,12.30
2019-03-24T20:36:22.698Z,12.10
2019-03-24T20:38:52.898Z,12.00
2019-03-24T20:41:27.966Z,11.90
2019-03-24T20:44:18.678Z,11.90
2019-03-24T20:46:49.487Z,11.80
2019-03-24T20:49:20.408Z,11.70
2019-03-24T20:51:50.319Z,11.60
2019-03-24T20:54:20.298Z,11.60
2019-03-24T20:56:51.298Z,11.70
2019-03-24T20:59:21.277Z,11.80
2019-03-24T21:01:52.333Z,11.70
2019-03-24T21:04:25.255Z,11.70
2019-03-24T21:06:56.395Z,11.50
2019-03-24T21:09:26.614Z,11.50
2019-03-24T21:11:58.939Z,11.50
2019-03-24T21:14:30.083Z,11.60
2019-03-24T21:17:01.107Z,11.70
2019-03-24T21:19:34.643Z,12.00
2019-03-24T21:22:07.271Z,12.00
2019-03-24T21:24:40.412Z,11.70
2019-03-24T21:27:11.471Z,11.60
2019-03-24T21:29:42.313Z,11.50
2019-03-24T21:32:12.880Z,11.40
2019-03-24T21:34:43.431Z,11.40
2019-03-24T21:40:15.439Z,11.40
2019-03-24T21:42:47.910Z,11.30
2019-03-24T21:45:18.302Z,11.20
2019-03-24T21:47:48.428Z,11.20
2019-03-24T21:50:24.648Z,11.10
2019-03-24T21:52:56.561Z,11.20
2019-03-24T21:55:27.446Z,11.10
2019-03-24T21:57:58.055Z,11.00
2019-03-24T22:00:36.491Z,11.30
2019-03-24T22:03:09.095Z,11.30
2019-03-24T22:05:40.301Z,11.30
2019-03-24T22:08:13.421Z,11.20
2019-03-24T22:10:46.811Z,11.00
2019-03-24T22:13:21.048Z,10.90
2019-03-24T22:15:57.029Z,11.00
2019-03-24T22:18:28.381Z,10.90
2019-03-24T22:21:02.606Z,11.00
2019-03-24T22:23:37.184Z,11.00
2019-03-24T22:26:08.353Z,10.80
2019-03-24T22:28:43.887Z,10.90
2019-03-24T22:31:14.414Z,10.80
2019-03-24T22:33:55.432Z,10.80
2019-03-24T22:36:33.676Z,10.70
2019-03-24T22:39:06.204Z,10.70
2019-03-24T22:41:37.843Z,10.80
2019-03-24T22:44:09.772Z,10.70
2019-03-24T22:46:52.729Z,10.60
2019-03-24T22:49:24.477Z,10.50
2019-03-24T22:52:06.889Z,10.50
2019-03-24T22:54:29.064Z,10.50
2019-03-24T22:57:09.514Z,10.40
2019-03-24T22:59:42.057Z,10.40
2019-03-24T23:02:15.136Z,10.50
2019-03-24T23:04:50.727Z,10.50
2019-03-24T23:07:21.966Z,10.50
2019-03-24T23:09:52.605Z,10.40
2019-03-24T23:12:22.833Z,10.40
2019-03-24T23:14:53.299Z,10.50
2019-03-24T23:17:23.596Z,10.40
2019-03-24T23:19:55.783Z,10.30
2019-03-24T23:22:26.270Z,10.50
2019-03-24T23:24:57.512Z,10.40
2019-03-24T23:28:01.193Z,10.40
2019-03-24T23:30:31.075Z,10.30
2019-03-24T23:33:02.205Z,10.40
2019-03-24T23:35:33.173Z,10.40
2019-03-24T23:38:04.624Z,10.60
2019-03-24T23:40:36.186Z,10.50
2019-03-24T23:43:06.032Z,10.40
2019-03-24T23:45:39.505Z,10.60
2019-03-24T23:48:10.837Z,10.40
2019-03-24T23:50:59.824Z,10.40
2019-03-24T23:53:30.172Z,10.30
2019-03-24T23:56:00.376Z,10.30
2019-03-24T23:58:40.429Z,10.30
